Weather at Tezu Airport

Public forecast

Using degrees Celsius for public forecast. Weather courtesy of forecast.io.

Closest aviation weather report (METAR) to Tezu Airport

Closest report is Dibrugarh Airport, 65.4 nm (121.2 km) WSW. Retrieved 2020/09/23 08:30 UTC (0 seconds ago):

VEMN 230830Z 06006KT 5000 HZ SCT020 FEW025CB BKN100 31/26 Q1005 NOSIG

Closest aviation forecast (TAF) to Tezu Airport

Forecast is more than 12 hours old.

Closest forecast is Along Airport, 72.0 nm (133.3 km) WNW. Retrieved 2019/09/10 06:30 UTC (1 year ago):

TAF VEAN 100330Z 1006/1018 09008KT 6000 SCT020 SCT025 BKN090 TEMPO 1014/1018 3000 TSRA SCT025 FEW030CB BKN090